sensor_id;sensor_type;location;lat;lon;timestamp;temperature;humidity
42135;DHT22;28312;43.460;11.810;2022-11-25T00:02:33;3.00;73.60
42135;DHT22;28312;43.460;11.810;2022-11-25T00:06:37;2.90;73.70
42135;DHT22;28312;43.460;11.810;2022-11-25T00:10:40;3.00;73.80
42135;DHT22;28312;43.460;11.810;2022-11-25T00:14:44;3.00;73.80
42135;DHT22;28312;43.460;11.810;2022-11-25T00:18:52;3.10;73.80
42135;DHT22;28312;43.460;11.810;2022-11-25T00:22:56;3.20;73.90
42135;DHT22;28312;43.460;11.810;2022-11-25T00:27:00;3.20;74.00
42135;DHT22;28312;43.460;11.810;2022-11-25T00:31:13;3.20;74.00
42135;DHT22;28312;43.460;11.810;2022-11-25T00:35:16;3.30;74.20
42135;DHT22;28312;43.460;11.810;2022-11-25T00:39:20;3.40;74.30
42135;DHT22;28312;43.460;11.810;2022-11-25T00:43:26;3.50;74.40
42135;DHT22;28312;43.460;11.810;2022-11-25T00:47:48;3.60;74.50
42135;DHT22;28312;43.460;11.810;2022-11-25T00:51:53;3.80;74.50
42135;DHT22;28312;43.460;11.810;2022-11-25T00:56:00;3.90;74.40
42135;DHT22;28312;43.460;11.810;2022-11-25T01:00:16;4.00;74.40
42135;DHT22;28312;43.460;11.810;2022-11-25T01:04:20;4.10;74.40
42135;DHT22;28312;43.460;11.810;2022-11-25T01:08:24;4.20;74.40
42135;DHT22;28312;43.460;11.810;2022-11-25T01:12:28;4.30;74.50
42135;DHT22;28312;43.460;11.810;2022-11-25T01:16:31;4.40;74.60
42135;DHT22;28312;43.460;11.810;2022-11-25T01:20:35;4.60;74.80
42135;DHT22;28312;43.460;11.810;2022-11-25T01:24:39;4.70;74.90
42135;DHT22;28312;43.460;11.810;2022-11-25T01:28:43;4.90;75.00
42135;DHT22;28312;43.460;11.810;2022-11-25T01:32:46;5.10;75.00
42135;DHT22;28312;43.460;11.810;2022-11-25T01:36:50;5.30;75.00
42135;DHT22;28312;43.460;11.810;2022-11-25T01:40:54;5.40;74.90
42135;DHT22;28312;43.460;11.810;2022-11-25T01:49:40;5.70;75.00
42135;DHT22;28312;43.460;11.810;2022-11-25T01:53:45;5.80;74.90
42135;DHT22;28312;43.460;11.810;2022-11-25T01:58:02;5.90;74.90
42135;DHT22;28312;43.460;11.810;2022-11-25T02:02:09;6.00;74.90
42135;DHT22;28312;43.460;11.810;2022-11-25T02:06:21;6.20;74.90
42135;DHT22;28312;43.460;11.810;2022-11-25T02:10:29;6.20;74.90
42135;DHT22;28312;43.460;11.810;2022-11-25T02:14:34;6.30;74.70
42135;DHT22;28312;43.460;11.810;2022-11-25T02:18:39;6.50;74.70
42135;DHT22;28312;43.460;11.810;2022-11-25T02:26:47;6.60;74.70
42135;DHT22;28312;43.460;11.810;2022-11-25T02:30:52;6.70;74.80
42135;DHT22;28312;43.460;11.810;2022-11-25T02:34:57;6.70;74.80
42135;DHT22;28312;43.460;11.810;2022-11-25T02:39:02;6.80;74.80
42135;DHT22;28312;43.460;11.810;2022-11-25T02:43:09;6.80;74.70
42135;DHT22;28312;43.460;11.810;2022-11-25T02:47:14;6.90;74.70
42135;DHT22;28312;43.460;11.810;2022-11-25T02:51:22;6.90;74.70
42135;DHT22;28312;43.460;11.810;2022-11-25T02:55:27;7.00;74.70
42135;DHT22;28312;43.460;11.810;2022-11-25T02:59:31;7.00;74.80
42135;DHT22;28312;43.460;11.810;2022-11-25T03:03:36;7.10;74.90
42135;DHT22;28312;43.460;11.810;2022-11-25T03:07:41;7.10;75.10
42135;DHT22;28312;43.460;11.810;2022-11-25T03:11:45;7.10;75.10
42135;DHT22;28312;43.460;11.810;2022-11-25T03:16:07;7.10;75.20
42135;DHT22;28312;43.460;11.810;2022-11-25T03:20:11;7.20;75.20
42135;DHT22;28312;43.460;11.810;2022-11-25T03:24:16;7.20;75.40
42135;DHT22;28312;43.460;11.810;2022-11-25T03:28:22;7.20;75.40
42135;DHT22;28312;43.460;11.810;2022-11-25T03:32:26;7.20;75.40
42135;DHT22;28312;43.460;11.810;2022-11-25T03:36:30;7.20;75.20
42135;DHT22;28312;43.460;11.810;2022-11-25T03:40:33;7.30;75.30
42135;DHT22;28312;43.460;11.810;2022-11-25T03:44:39;7.30;75.30
42135;DHT22;28312;43.460;11.810;2022-11-25T03:48:44;7.40;75.20
42135;DHT22;28312;43.460;11.810;2022-11-25T03:52:47;7.50;75.30
42135;DHT22;28312;43.460;11.810;2022-11-25T03:56:53;7.50;75.20
42135;DHT22;28312;43.460;11.810;2022-11-25T04:01:00;7.50;75.10
42135;DHT22;28312;43.460;11.810;2022-11-25T04:05:05;7.60;75.10
42135;DHT22;28312;43.460;11.810;2022-11-25T04:09:09;7.60;75.10
42135;DHT22;28312;43.460;11.810;2022-11-25T04:13:14;7.60;75.10
42135;DHT22;28312;43.460;11.810;2022-11-25T04:17:20;7.70;75.10
42135;DHT22;28312;43.460;11.810;2022-11-25T04:21:25;7.70;75.00
42135;DHT22;28312;43.460;11.810;2022-11-25T04:25:29;7.70;75.10
42135;DHT22;28312;43.460;11.810;2022-11-25T04:29:34;7.70;75.10
42135;DHT22;28312;43.460;11.810;2022-11-25T04:33:39;7.70;75.00
42135;DHT22;28312;43.460;11.810;2022-11-25T04:37:43;7.70;75.10
42135;DHT22;28312;43.460;11.810;2022-11-25T04:41:48;7.70;75.10
42135;DHT22;28312;43.460;11.810;2022-11-25T04:45:52;7.80;75.10
42135;DHT22;28312;43.460;11.810;2022-11-25T04:50:22;7.80;75.00
42135;DHT22;28312;43.460;11.810;2022-11-25T04:54:40;7.90;75.00
42135;DHT22;28312;43.460;11.810;2022-11-25T04:58:44;7.90;75.00
42135;DHT22;28312;43.460;11.810;2022-11-25T05:03:11;8.00;75.00
42135;DHT22;28312;43.460;11.810;2022-11-25T05:07:16;8.00;75.00
42135;DHT22;28312;43.460;11.810;2022-11-25T05:11:23;7.90;75.00
42135;DHT22;28312;43.460;11.810;2022-11-25T05:15:27;7.90;75.00
42135;DHT22;28312;43.460;11.810;2022-11-25T05:19:31;7.90;75.20
42135;DHT22;28312;43.460;11.810;2022-11-25T05:23:36;7.90;75.30
42135;DHT22;28312;43.460;11.810;2022-11-25T05:27:39;8.00;75.30
42135;DHT22;28312;43.460;11.810;2022-11-25T05:31:46;8.00;75.30
42135;DHT22;28312;43.460;11.810;2022-11-25T05:35:57;8.10;75.30
42135;DHT22;28312;43.460;11.810;2022-11-25T05:40:07;8.10;75.30
42135;DHT22;28312;43.460;11.810;2022-11-25T05:44:30;8.10;75.30
42135;DHT22;28312;43.460;11.810;2022-11-25T05:48:33;8.10;75.30
42135;DHT22;28312;43.460;11.810;2022-11-25T05:52:38;8.10;75.30
42135;DHT22;28312;43.460;11.810;2022-11-25T05:56:41;8.10;75.20
42135;DHT22;28312;43.460;11.810;2022-11-25T06:01:08;8.20;75.20
42135;DHT22;28312;43.460;11.810;2022-11-25T06:05:13;8.20;75.20
42135;DHT22;28312;43.460;11.810;2022-11-25T06:09:16;8.20;75.20
42135;DHT22;28312;43.460;11.810;2022-11-25T06:13:21;8.10;75.20
42135;DHT22;28312;43.460;11.810;2022-11-25T06:17:25;8.10;75.30
42135;DHT22;28312;43.460;11.810;2022-11-25T06:21:37;8.10;75.40
42135;DHT22;28312;43.460;11.810;2022-11-25T06:25:42;8.20;75.30
42135;DHT22;28312;43.460;11.810;2022-11-25T06:29:46;8.20;75.20
42135;DHT22;28312;43.460;11.810;2022-11-25T06:33:52;8.20;75.20
42135;DHT22;28312;43.460;11.810;2022-11-25T06:38:00;8.20;75.20
42135;DHT22;28312;43.460;11.810;2022-11-25T06:42:04;8.20;75.20
42135;DHT22;28312;43.460;11.810;2022-11-25T06:46:12;8.20;75.40
42135;DHT22;28312;43.460;11.810;2022-11-25T06:50:21;8.20;75.50
42135;DHT22;28312;43.460;11.810;2022-11-25T06:54:25;8.30;75.50
42135;DHT22;28312;43.460;11.810;2022-11-25T06:58:29;8.30;75.50
42135;DHT22;28312;43.460;11.810;2022-11-25T07:02:38;8.40;75.50
42135;DHT22;28312;43.460;11.810;2022-11-25T07:06:48;8.40;75.60
42135;DHT22;28312;43.460;11.810;2022-11-25T07:10:53;8.40;75.60
42135;DHT22;28312;43.460;11.810;2022-11-25T07:14:57;8.50;75.60
42135;DHT22;28312;43.460;11.810;2022-11-25T07:19:01;8.50;75.60
42135;DHT22;28312;43.460;11.810;2022-11-25T07:23:05;8.50;75.70
42135;DHT22;28312;43.460;11.810;2022-11-25T07:27:10;8.60;75.90
42135;DHT22;28312;43.460;11.810;2022-11-25T07:31:22;8.70;75.80
42135;DHT22;28312;43.460;11.810;2022-11-25T07:35:34;8.70;75.90
42135;DHT22;28312;43.460;11.810;2022-11-25T07:39:39;8.80;75.90
42135;DHT22;28312;43.460;11.810;2022-11-25T07:43:47;8.80;76.10
42135;DHT22;28312;43.460;11.810;2022-11-25T07:47:55;8.90;76.10
42135;DHT22;28312;43.460;11.810;2022-11-25T07:51:58;9.00;76.10
42135;DHT22;28312;43.460;11.810;2022-11-25T07:56:02;9.00;76.00
42135;DHT22;28312;43.460;11.810;2022-11-25T08:00:07;9.10;76.10
42135;DHT22;28312;43.460;11.810;2022-11-25T08:04:16;9.00;76.20
42135;DHT22;28312;43.460;11.810;2022-11-25T08:08:23;9.10;76.40
42135;DHT22;28312;43.460;11.810;2022-11-25T08:12:26;9.10;76.50
42135;DHT22;28312;43.460;11.810;2022-11-25T08:16:30;9.20;76.50
42135;DHT22;28312;43.460;11.810;2022-11-25T08:20:35;9.20;76.60
42135;DHT22;28312;43.460;11.810;2022-11-25T08:24:39;9.30;76.60
42135;DHT22;28312;43.460;11.810;2022-11-25T08:28:44;9.40;76.60
42135;DHT22;28312;43.460;11.810;2022-11-25T08:32:49;9.50;76.50
42135;DHT22;28312;43.460;11.810;2022-11-25T08:36:54;9.60;76.40
42135;DHT22;28312;43.460;11.810;2022-11-25T08:40:59;9.70;76.50
42135;DHT22;28312;43.460;11.810;2022-11-25T08:45:05;9.80;76.60
42135;DHT22;28312;43.460;11.810;2022-11-25T08:49:10;9.90;76.40
42135;DHT22;28312;43.460;11.810;2022-11-25T08:53:14;10.00;76.20
42135;DHT22;28312;43.460;11.810;2022-11-25T08:57:18;10.00;76.30
42135;DHT22;28312;43.460;11.810;2022-11-25T09:01:22;10.00;76.40
42135;DHT22;28312;43.460;11.810;2022-11-25T09:05:27;10.00;76.50
42135;DHT22;28312;43.460;11.810;2022-11-25T09:09:38;10.00;76.60
42135;DHT22;28312;43.460;11.810;2022-11-25T09:13:42;10.10;76.50
42135;DHT22;28312;43.460;11.810;2022-11-25T09:17:45;10.20;76.20
42135;DHT22;28312;43.460;11.810;2022-11-25T09:21:49;10.20;76.10
42135;DHT22;28312;43.460;11.810;2022-11-25T09:25:55;10.10;76.30
42135;DHT22;28312;43.460;11.810;2022-11-25T09:30:00;10.10;76.40
42135;DHT22;28312;43.460;11.810;2022-11-25T09:34:03;10.10;76.50
42135;DHT22;28312;43.460;11.810;2022-11-25T09:38:07;10.20;76.40
42135;DHT22;28312;43.460;11.810;2022-11-25T09:42:28;10.20;76.40
42135;DHT22;28312;43.460;11.810;2022-11-25T09:47:17;10.20;76.60
42135;DHT22;28312;43.460;11.810;2022-11-25T09:55:54;10.20;76.50
42135;DHT22;28312;43.460;11.810;2022-11-25T10:08:39;10.20;76.80
42135;DHT22;28312;43.460;11.810;2022-11-25T10:12:44;10.40;76.90
42135;DHT22;28312;43.460;11.810;2022-11-25T10:17:06;10.50;76.70
42135;DHT22;28312;43.460;11.810;2022-11-25T10:21:13;10.50;76.80
42135;DHT22;28312;43.460;11.810;2022-11-25T10:25:23;10.60;76.30
42135;DHT22;28312;43.460;11.810;2022-11-25T10:29:30;10.60;76.30
42135;DHT22;28312;43.460;11.810;2022-11-25T10:33:48;10.50;76.20
42135;DHT22;28312;43.460;11.810;2022-11-25T10:37:52;10.60;76.50
42135;DHT22;28312;43.460;11.810;2022-11-25T10:41:59;10.60;76.60
42135;DHT22;28312;43.460;11.810;2022-11-25T10:46:24;10.70;76.60
42135;DHT22;28312;43.460;11.810;2022-11-25T10:55:24;10.90;76.90
42135;DHT22;28312;43.460;11.810;2022-11-25T10:59:38;11.10;77.10
42135;DHT22;28312;43.460;11.810;2022-11-25T11:03:43;11.30;77.20
42135;DHT22;28312;43.460;11.810;2022-11-25T11:08:07;11.60;77.40
42135;DHT22;28312;43.460;11.810;2022-11-25T11:12:26;11.90;77.00
42135;DHT22;28312;43.460;11.810;2022-11-25T11:16:35;12.10;76.50
42135;DHT22;28312;43.460;11.810;2022-11-25T11:20:46;12.20;76.60
42135;DHT22;28312;43.460;11.810;2022-11-25T11:25:11;12.30;77.30
42135;DHT22;28312;43.460;11.810;2022-11-25T11:29:20;12.70;77.40
42135;DHT22;28312;43.460;11.810;2022-11-25T11:33:42;12.90;77.00
42135;DHT22;28312;43.460;11.810;2022-11-25T11:37:52;13.00;77.00
42135;DHT22;28312;43.460;11.810;2022-11-25T11:42:27;13.40;77.80
42135;DHT22;28312;43.460;11.810;2022-11-25T11:50:58;14.40;77.50
42135;DHT22;28312;43.460;11.810;2022-11-25T11:59:58;15.00;77.50
42135;DHT22;28312;43.460;11.810;2022-11-25T12:04:21;15.30;76.20
42135;DHT22;28312;43.460;11.810;2022-11-25T12:08:52;15.30;75.30
42135;DHT22;28312;43.460;11.810;2022-11-25T12:13:20;15.10;75.30
42135;DHT22;28312;43.460;11.810;2022-11-25T12:17:33;15.00;75.40
42135;DHT22;28312;43.460;11.810;2022-11-25T12:25:57;14.80;75.60
42135;DHT22;28312;43.460;11.810;2022-11-25T12:30:07;14.80;75.40
42135;DHT22;28312;43.460;11.810;2022-11-25T12:34:38;14.70;75.00
42135;DHT22;28312;43.460;11.810;2022-11-25T12:38:54;14.50;75.00
42135;DHT22;28312;43.460;11.810;2022-11-25T12:47:28;14.30;75.00
42135;DHT22;28312;43.460;11.810;2022-11-25T12:55:57;14.20;74.90
42135;DHT22;28312;43.460;11.810;2022-11-25T13:00:18;14.10;74.90
42135;DHT22;28312;43.460;11.810;2022-11-25T13:14:23;13.80;74.90
42135;DHT22;28312;43.460;11.810;2022-11-25T13:18:30;13.80;74.90
42135;DHT22;28312;43.460;11.810;2022-11-25T13:22:35;13.80;74.70
42135;DHT22;28312;43.460;11.810;2022-11-25T13:26:46;13.70;74.80
42135;DHT22;28312;43.460;11.810;2022-11-25T13:30:51;13.60;75.10
42135;DHT22;28312;43.460;11.810;2022-11-25T13:39:31;13.70;75.00
42135;DHT22;28312;43.460;11.810;2022-11-25T13:43:54;13.70;74.70
42135;DHT22;28312;43.460;11.810;2022-11-25T13:48:19;13.70;74.60
42135;DHT22;28312;43.460;11.810;2022-11-25T13:56:35;13.50;74.40
42135;DHT22;28312;43.460;11.810;2022-11-25T14:32:39;13.10;74.60
42135;DHT22;28312;43.460;11.810;2022-11-25T14:37:16;13.10;74.40
42135;DHT22;28312;43.460;11.810;2022-11-25T14:41:27;13.00;74.40
42135;DHT22;28312;43.460;11.810;2022-11-25T14:45:34;12.90;74.30
42135;DHT22;28312;43.460;11.810;2022-11-25T14:54:09;12.90;74.30
42135;DHT22;28312;43.460;11.810;2022-11-25T14:58:13;12.90;74.20
42135;DHT22;28312;43.460;11.810;2022-11-25T15:02:28;12.80;74.20
42135;DHT22;28312;43.460;11.810;2022-11-25T15:06:38;12.80;74.20
42135;DHT22;28312;43.460;11.810;2022-11-25T15:14:54;12.70;74.20
42135;DHT22;28312;43.460;11.810;2022-11-25T15:19:02;12.60;74.30
42135;DHT22;28312;43.460;11.810;2022-11-25T15:23:07;12.50;74.50
42135;DHT22;28312;43.460;11.810;2022-11-25T15:27:18;12.40;74.60
42135;DHT22;28312;43.460;11.810;2022-11-25T15:31:27;12.40;74.40
42135;DHT22;28312;43.460;11.810;2022-11-25T15:35:31;12.30;74.40
42135;DHT22;28312;43.460;11.810;2022-11-25T15:39:37;12.30;74.40
42135;DHT22;28312;43.460;11.810;2022-11-25T15:43:45;12.20;74.50
42135;DHT22;28312;43.460;11.810;2022-11-25T15:47:49;12.00;74.70
42135;DHT22;28312;43.460;11.810;2022-11-25T15:52:05;12.00;74.80
42135;DHT22;28312;43.460;11.810;2022-11-25T15:56:17;11.90;74.90
42135;DHT22;28312;43.460;11.810;2022-11-25T16:00:23;11.70;75.00
42135;DHT22;28312;43.460;11.810;2022-11-25T16:04:27;11.70;75.10
42135;DHT22;28312;43.460;11.810;2022-11-25T16:08:36;11.70;75.00
42135;DHT22;28312;43.460;11.810;2022-11-25T16:12:41;11.60;75.10
42135;DHT22;28312;43.460;11.810;2022-11-25T16:16:45;11.50;75.10
42135;DHT22;28312;43.460;11.810;2022-11-25T16:20:55;11.40;75.10
42135;DHT22;28312;43.460;11.810;2022-11-25T16:25:01;11.30;75.30
42135;DHT22;28312;43.460;11.810;2022-11-25T16:33:37;11.20;75.30
42135;DHT22;28312;43.460;11.810;2022-11-25T16:37:41;11.20;75.10
42135;DHT22;28312;43.460;11.810;2022-11-25T16:41:59;11.20;75.30
42135;DHT22;28312;43.460;11.810;2022-11-25T16:46:09;11.10;75.30
42135;DHT22;28312;43.460;11.810;2022-11-25T16:50:15;11.00;75.40
42135;DHT22;28312;43.460;11.810;2022-11-25T16:54:20;11.00;75.50
42135;DHT22;28312;43.460;11.810;2022-11-25T16:58:24;11.00;75.50
42135;DHT22;28312;43.460;11.810;2022-11-25T17:02:28;10.90;75.60
42135;DHT22;28312;43.460;11.810;2022-11-25T17:06:32;10.90;75.60
42135;DHT22;28312;43.460;11.810;2022-11-25T17:10:35;10.90;75.60
42135;DHT22;28312;43.460;11.810;2022-11-25T17:14:39;10.80;75.70
42135;DHT22;28312;43.460;11.810;2022-11-25T17:18:46;10.70;75.80
42135;DHT22;28312;43.460;11.810;2022-11-25T17:22:51;10.70;76.00
42135;DHT22;28312;43.460;11.810;2022-11-25T17:27:01;10.70;76.00
42135;DHT22;28312;43.460;11.810;2022-11-25T17:31:07;10.70;75.90
42135;DHT22;28312;43.460;11.810;2022-11-25T17:35:17;10.60;76.00
42135;DHT22;28312;43.460;11.810;2022-11-25T17:39:21;10.50;76.10
42135;DHT22;28312;43.460;11.810;2022-11-25T17:43:27;10.50;76.20
42135;DHT22;28312;43.460;11.810;2022-11-25T17:47:36;10.50;76.30
42135;DHT22;28312;43.460;11.810;2022-11-25T17:51:41;10.50;76.40
42135;DHT22;28312;43.460;11.810;2022-11-25T17:55:44;10.50;76.30
42135;DHT22;28312;43.460;11.810;2022-11-25T17:59:49;10.50;76.40
42135;DHT22;28312;43.460;11.810;2022-11-25T18:03:53;10.50;76.50
42135;DHT22;28312;43.460;11.810;2022-11-25T18:07:56;10.50;76.50
42135;DHT22;28312;43.460;11.810;2022-11-25T18:12:02;10.40;76.50
42135;DHT22;28312;43.460;11.810;2022-11-25T18:16:10;10.40;76.50
42135;DHT22;28312;43.460;11.810;2022-11-25T18:20:20;10.40;76.50
42135;DHT22;28312;43.460;11.810;2022-11-25T18:24:24;10.50;76.60
42135;DHT22;28312;43.460;11.810;2022-11-25T18:28:31;10.50;76.60
42135;DHT22;28312;43.460;11.810;2022-11-25T18:32:35;10.60;76.60
42135;DHT22;28312;43.460;11.810;2022-11-25T18:36:38;10.60;76.60
42135;DHT22;28312;43.460;11.810;2022-11-25T18:40:44;10.60;76.60
42135;DHT22;28312;43.460;11.810;2022-11-25T18:44:55;10.50;76.60
42135;DHT22;28312;43.460;11.810;2022-11-25T18:48:59;10.50;76.70
42135;DHT22;28312;43.460;11.810;2022-11-25T18:53:02;10.50;76.80
42135;DHT22;28312;43.460;11.810;2022-11-25T18:57:08;10.60;76.90
42135;DHT22;28312;43.460;11.810;2022-11-25T19:01:12;10.60;76.80
42135;DHT22;28312;43.460;11.810;2022-11-25T19:05:22;10.60;76.70
42135;DHT22;28312;43.460;11.810;2022-11-25T19:09:27;10.60;76.70
42135;DHT22;28312;43.460;11.810;2022-11-25T19:13:33;10.60;76.70
42135;DHT22;28312;43.460;11.810;2022-11-25T19:17:38;10.60;76.80
42135;DHT22;28312;43.460;11.810;2022-11-25T19:21:43;10.70;76.80
42135;DHT22;28312;43.460;11.810;2022-11-25T19:25:48;10.70;76.90
42135;DHT22;28312;43.460;11.810;2022-11-25T19:29:54;10.70;76.80
42135;DHT22;28312;43.460;11.810;2022-11-25T19:34:00;10.70;76.80
42135;DHT22;28312;43.460;11.810;2022-11-25T19:38:16;10.80;76.80
42135;DHT22;28312;43.460;11.810;2022-11-25T19:42:20;10.80;76.80
42135;DHT22;28312;43.460;11.810;2022-11-25T19:46:30;10.90;76.70
42135;DHT22;28312;43.460;11.810;2022-11-25T19:50:55;10.90;76.70
42135;DHT22;28312;43.460;11.810;2022-11-25T19:55:22;11.00;76.70
42135;DHT22;28312;43.460;11.810;2022-11-25T19:59:26;11.00;76.60
42135;DHT22;28312;43.460;11.810;2022-11-25T20:03:30;11.00;76.50
42135;DHT22;28312;43.460;11.810;2022-11-25T20:07:35;11.10;76.50
42135;DHT22;28312;43.460;11.810;2022-11-25T20:11:38;11.00;76.50
42135;DHT22;28312;43.460;11.810;2022-11-25T20:15:43;11.00;76.50
42135;DHT22;28312;43.460;11.810;2022-11-25T20:19:48;11.10;76.50
42135;DHT22;28312;43.460;11.810;2022-11-25T20:23:52;11.10;76.40
42135;DHT22;28312;43.460;11.810;2022-11-25T20:27:56;11.10;76.40
42135;DHT22;28312;43.460;11.810;2022-11-25T20:32:00;11.00;76.50
42135;DHT22;28312;43.460;11.810;2022-11-25T20:36:14;11.00;76.50
42135;DHT22;28312;43.460;11.810;2022-11-25T20:40:36;11.00;76.50
42135;DHT22;28312;43.460;11.810;2022-11-25T20:44:40;11.00;76.50
42135;DHT22;28312;43.460;11.810;2022-11-25T20:48:45;11.00;76.40
42135;DHT22;28312;43.460;11.810;2022-11-25T20:52:49;11.00;76.50
42135;DHT22;28312;43.460;11.810;2022-11-25T20:56:53;10.90;76.50
42135;DHT22;28312;43.460;11.810;2022-11-25T21:00:59;10.90;76.60
42135;DHT22;28312;43.460;11.810;2022-11-25T21:05:03;10.90;76.70
42135;DHT22;28312;43.460;11.810;2022-11-25T21:09:17;10.90;76.60
42135;DHT22;28312;43.460;11.810;2022-11-25T21:13:26;10.90;76.60
42135;DHT22;28312;43.460;11.810;2022-11-25T21:17:32;10.90;76.70
42135;DHT22;28312;43.460;11.810;2022-11-25T21:21:38;10.90;76.70
42135;DHT22;28312;43.460;11.810;2022-11-25T21:25:43;10.80;76.90
42135;DHT22;28312;43.460;11.810;2022-11-25T21:29:49;10.80;76.90
42135;DHT22;28312;43.460;11.810;2022-11-25T21:33:58;10.80;76.90
42135;DHT22;28312;43.460;11.810;2022-11-25T21:38:07;10.80;77.00
42135;DHT22;28312;43.460;11.810;2022-11-25T21:42:18;10.90;76.90
42135;DHT22;28312;43.460;11.810;2022-11-25T21:46:24;10.80;76.80
42135;DHT22;28312;43.460;11.810;2022-11-25T21:50:32;10.80;76.70
42135;DHT22;28312;43.460;11.810;2022-11-25T21:54:37;10.70;76.80
42135;DHT22;28312;43.460;11.810;2022-11-25T21:58:41;10.70;76.80
42135;DHT22;28312;43.460;11.810;2022-11-25T22:02:46;10.70;76.90
42135;DHT22;28312;43.460;11.810;2022-11-25T22:06:50;10.60;77.00
42135;DHT22;28312;43.460;11.810;2022-11-25T22:10:54;10.70;77.00
42135;DHT22;28312;43.460;11.810;2022-11-25T22:14:58;10.70;76.90
42135;DHT22;28312;43.460;11.810;2022-11-25T22:19:03;10.70;77.00
42135;DHT22;28312;43.460;11.810;2022-11-25T22:23:14;10.60;77.00
42135;DHT22;28312;43.460;11.810;2022-11-25T22:27:25;10.60;77.10
42135;DHT22;28312;43.460;11.810;2022-11-25T22:31:30;10.60;77.00
42135;DHT22;28312;43.460;11.810;2022-11-25T22:35:34;10.60;77.00
42135;DHT22;28312;43.460;11.810;2022-11-25T22:39:38;10.60;77.10
42135;DHT22;28312;43.460;11.810;2022-11-25T22:43:45;10.50;76.90
42135;DHT22;28312;43.460;11.810;2022-11-25T22:47:52;10.40;77.10
42135;DHT22;28312;43.460;11.810;2022-11-25T22:52:02;10.40;77.10
42135;DHT22;28312;43.460;11.810;2022-11-25T22:56:16;10.40;77.40
42135;DHT22;28312;43.460;11.810;2022-11-25T23:00:25;10.40;77.60
42135;DHT22;28312;43.460;11.810;2022-11-25T23:04:30;10.50;77.60
42135;DHT22;28312;43.460;11.810;2022-11-25T23:08:33;10.50;77.80
42135;DHT22;28312;43.460;11.810;2022-11-25T23:12:37;10.50;78.00
42135;DHT22;28312;43.460;11.810;2022-11-25T23:16:41;10.50;78.00
42135;DHT22;28312;43.460;11.810;2022-11-25T23:20:44;10.50;78.30
42135;DHT22;28312;43.460;11.810;2022-11-25T23:24:51;10.50;78.70
42135;DHT22;28312;43.460;11.810;2022-11-25T23:28:54;10.40;78.80
42135;DHT22;28312;43.460;11.810;2022-11-25T23:32:58;10.40;78.90
42135;DHT22;28312;43.460;11.810;2022-11-25T23:37:01;10.30;79.10
42135;DHT22;28312;43.460;11.810;2022-11-25T23:41:07;10.20;79.40
42135;DHT22;28312;43.460;11.810;2022-11-25T23:45:19;10.20;79.60
42135;DHT22;28312;43.460;11.810;2022-11-25T23:49:27;10.10;79.60
42135;DHT22;28312;43.460;11.810;2022-11-25T23:53:37;10.10;79.40
42135;DHT22;28312;43.460;11.810;2022-11-25T23:57:40;10.00;79.20
